sensor_id;sensor_type;location;lat;lon;timestamp;temperature;humidity
19646;DHT22;9971;52.446;13.452;2023-05-07T00:03:01;11.30;99.90
19646;DHT22;9971;52.446;13.452;2023-05-07T00:08:05;11.30;99.90
19646;DHT22;9971;52.446;13.452;2023-05-07T00:13:08;11.30;99.90
19646;DHT22;9971;52.446;13.452;2023-05-07T00:18:10;11.30;99.90
19646;DHT22;9971;52.446;13.452;2023-05-07T00:23:13;11.30;99.90
19646;DHT22;9971;52.446;13.452;2023-05-07T00:28:16;11.30;99.90
19646;DHT22;9971;52.446;13.452;2023-05-07T00:33:19;11.30;99.90
19646;DHT22;9971;52.446;13.452;2023-05-07T00:38:21;11.30;99.90
19646;DHT22;9971;52.446;13.452;2023-05-07T00:43:24;11.30;99.90
19646;DHT22;9971;52.446;13.452;2023-05-07T00:48:26;11.30;99.90
19646;DHT22;9971;52.446;13.452;2023-05-07T00:53:29;11.30;99.90
19646;DHT22;9971;52.446;13.452;2023-05-07T00:58:31;11.30;99.90
19646;DHT22;9971;52.446;13.452;2023-05-07T01:03:34;11.30;99.90
19646;DHT22;9971;52.446;13.452;2023-05-07T01:08:37;11.30;99.90
19646;DHT22;9971;52.446;13.452;2023-05-07T01:13:39;11.30;99.90
19646;DHT22;9971;52.446;13.452;2023-05-07T01:18:41;11.30;99.90
19646;DHT22;9971;52.446;13.452;2023-05-07T01:23:44;11.20;99.90
19646;DHT22;9971;52.446;13.452;2023-05-07T01:28:45;11.30;99.90
19646;DHT22;9971;52.446;13.452;2023-05-07T01:33:48;11.20;99.90
19646;DHT22;9971;52.446;13.452;2023-05-07T01:38:50;11.20;99.90
19646;DHT22;9971;52.446;13.452;2023-05-07T01:43:52;11.20;99.90
19646;DHT22;9971;52.446;13.452;2023-05-07T01:48:54;11.30;99.90
19646;DHT22;9971;52.446;13.452;2023-05-07T01:53:57;11.20;99.90
19646;DHT22;9971;52.446;13.452;2023-05-07T01:58:59;11.20;99.90
19646;DHT22;9971;52.446;13.452;2023-05-07T02:04:03;11.20;99.90
19646;DHT22;9971;52.446;13.452;2023-05-07T02:09:08;11.20;99.90
19646;DHT22;9971;52.446;13.452;2023-05-07T02:14:10;11.20;99.90
19646;DHT22;9971;52.446;13.452;2023-05-07T02:19:13;11.20;99.90
19646;DHT22;9971;52.446;13.452;2023-05-07T02:24:16;11.30;99.90
19646;DHT22;9971;52.446;13.452;2023-05-07T02:29:18;11.30;99.90
19646;DHT22;9971;52.446;13.452;2023-05-07T02:34:21;11.30;99.90
19646;DHT22;9971;52.446;13.452;2023-05-07T02:39:25;11.30;99.90
19646;DHT22;9971;52.446;13.452;2023-05-07T02:44:28;11.30;99.90
19646;DHT22;9971;52.446;13.452;2023-05-07T02:49:30;11.30;99.90
19646;DHT22;9971;52.446;13.452;2023-05-07T02:54:33;11.30;99.90
19646;DHT22;9971;52.446;13.452;2023-05-07T02:59:37;11.30;99.90
19646;DHT22;9971;52.446;13.452;2023-05-07T03:04:41;11.20;99.90
19646;DHT22;9971;52.446;13.452;2023-05-07T03:09:44;11.20;99.90
19646;DHT22;9971;52.446;13.452;2023-05-07T03:14:46;11.20;99.90
19646;DHT22;9971;52.446;13.452;2023-05-07T03:19:48;11.20;99.90
19646;DHT22;9971;52.446;13.452;2023-05-07T03:24:52;11.20;99.90
19646;DHT22;9971;52.446;13.452;2023-05-07T03:29:54;11.20;99.90
19646;DHT22;9971;52.446;13.452;2023-05-07T03:34:57;11.20;99.90
19646;DHT22;9971;52.446;13.452;2023-05-07T03:39:59;11.20;99.90
19646;DHT22;9971;52.446;13.452;2023-05-07T03:45:02;11.20;99.90
19646;DHT22;9971;52.446;13.452;2023-05-07T03:50:06;11.20;99.90
19646;DHT22;9971;52.446;13.452;2023-05-07T03:55:09;11.20;99.90
19646;DHT22;9971;52.446;13.452;2023-05-07T04:00:12;11.10;99.90
19646;DHT22;9971;52.446;13.452;2023-05-07T04:05:15;11.10;99.90
19646;DHT22;9971;52.446;13.452;2023-05-07T04:10:18;11.10;99.90
19646;DHT22;9971;52.446;13.452;2023-05-07T04:15:20;11.10;99.90
19646;DHT22;9971;52.446;13.452;2023-05-07T04:20:23;11.10;99.90
19646;DHT22;9971;52.446;13.452;2023-05-07T04:25:25;11.10;99.90
19646;DHT22;9971;52.446;13.452;2023-05-07T04:30:27;11.10;99.90
19646;DHT22;9971;52.446;13.452;2023-05-07T04:35:30;11.10;99.90
19646;DHT22;9971;52.446;13.452;2023-05-07T04:40:32;11.10;99.90
19646;DHT22;9971;52.446;13.452;2023-05-07T04:45:35;11.20;99.90
19646;DHT22;9971;52.446;13.452;2023-05-07T04:50:37;11.20;99.90
19646;DHT22;9971;52.446;13.452;2023-05-07T04:55:40;11.20;99.90
19646;DHT22;9971;52.446;13.452;2023-05-07T05:00:42;11.30;99.90
19646;DHT22;9971;52.446;13.452;2023-05-07T05:05:46;11.30;99.90
19646;DHT22;9971;52.446;13.452;2023-05-07T05:10:48;11.30;99.90
19646;DHT22;9971;52.446;13.452;2023-05-07T05:15:52;11.40;99.90
19646;DHT22;9971;52.446;13.452;2023-05-07T05:20:54;11.40;99.90
19646;DHT22;9971;52.446;13.452;2023-05-07T05:25:58;11.50;99.90
19646;DHT22;9971;52.446;13.452;2023-05-07T05:31:00;11.50;99.90
19646;DHT22;9971;52.446;13.452;2023-05-07T05:36:03;11.50;99.90
19646;DHT22;9971;52.446;13.452;2023-05-07T05:41:07;11.60;99.90
19646;DHT22;9971;52.446;13.452;2023-05-07T05:46:10;11.60;99.90
19646;DHT22;9971;52.446;13.452;2023-05-07T05:51:13;11.70;99.90
19646;DHT22;9971;52.446;13.452;2023-05-07T05:56:16;11.80;99.90
19646;DHT22;9971;52.446;13.452;2023-05-07T06:01:18;11.80;99.90
19646;DHT22;9971;52.446;13.452;2023-05-07T06:06:20;12.00;99.90
19646;DHT22;9971;52.446;13.452;2023-05-07T06:11:23;12.10;99.90
19646;DHT22;9971;52.446;13.452;2023-05-07T06:16:26;12.20;99.90
19646;DHT22;9971;52.446;13.452;2023-05-07T06:21:28;12.30;99.90
19646;DHT22;9971;52.446;13.452;2023-05-07T06:26:31;12.40;99.90
19646;DHT22;9971;52.446;13.452;2023-05-07T06:31:34;12.60;99.90
19646;DHT22;9971;52.446;13.452;2023-05-07T06:36:37;12.60;99.90
19646;DHT22;9971;52.446;13.452;2023-05-07T06:41:40;12.60;99.90
19646;DHT22;9971;52.446;13.452;2023-05-07T06:46:44;12.60;99.90
19646;DHT22;9971;52.446;13.452;2023-05-07T06:51:46;12.60;99.90
19646;DHT22;9971;52.446;13.452;2023-05-07T06:56:50;12.70;99.90
19646;DHT22;9971;52.446;13.452;2023-05-07T07:01:52;12.80;99.90
19646;DHT22;9971;52.446;13.452;2023-05-07T07:06:55;12.90;99.90
19646;DHT22;9971;52.446;13.452;2023-05-07T07:11:58;13.10;99.90
19646;DHT22;9971;52.446;13.452;2023-05-07T07:17:00;13.20;99.90
19646;DHT22;9971;52.446;13.452;2023-05-07T07:22:04;13.40;99.90
19646;DHT22;9971;52.446;13.452;2023-05-07T07:27:12;13.60;99.90
19646;DHT22;9971;52.446;13.452;2023-05-07T07:32:14;13.70;99.90
19646;DHT22;9971;52.446;13.452;2023-05-07T07:37:17;13.80;99.90
19646;DHT22;9971;52.446;13.452;2023-05-07T07:42:20;13.90;99.90
19646;DHT22;9971;52.446;13.452;2023-05-07T07:47:23;14.00;99.90
19646;DHT22;9971;52.446;13.452;2023-05-07T07:52:25;14.10;99.90
19646;DHT22;9971;52.446;13.452;2023-05-07T07:57:28;14.20;99.90
19646;DHT22;9971;52.446;13.452;2023-05-07T08:02:32;14.30;99.90
19646;DHT22;9971;52.446;13.452;2023-05-07T08:07:34;14.40;99.90
19646;DHT22;9971;52.446;13.452;2023-05-07T08:12:37;14.60;99.90
19646;DHT22;9971;52.446;13.452;2023-05-07T08:17:42;14.70;99.90
19646;DHT22;9971;52.446;13.452;2023-05-07T08:22:44;15.00;99.90
19646;DHT22;9971;52.446;13.452;2023-05-07T08:27:47;15.20;99.90
19646;DHT22;9971;52.446;13.452;2023-05-07T08:32:50;15.40;99.90
19646;DHT22;9971;52.446;13.452;2023-05-07T08:37:52;15.60;99.90
19646;DHT22;9971;52.446;13.452;2023-05-07T08:42:55;15.80;99.90
19646;DHT22;9971;52.446;13.452;2023-05-07T08:47:59;15.90;99.90
19646;DHT22;9971;52.446;13.452;2023-05-07T08:53:02;16.20;99.90
19646;DHT22;9971;52.446;13.452;2023-05-07T08:58:03;16.40;99.90
19646;DHT22;9971;52.446;13.452;2023-05-07T09:03:05;16.30;99.90
19646;DHT22;9971;52.446;13.452;2023-05-07T09:08:08;16.30;99.90
19646;DHT22;9971;52.446;13.452;2023-05-07T09:13:11;16.60;99.90
19646;DHT22;9971;52.446;13.452;2023-05-07T09:18:12;16.70;99.90
19646;DHT22;9971;52.446;13.452;2023-05-07T09:23:15;16.70;99.90
19646;DHT22;9971;52.446;13.452;2023-05-07T09:28:17;16.90;99.90
19646;DHT22;9971;52.446;13.452;2023-05-07T09:33:20;17.00;99.90
19646;DHT22;9971;52.446;13.452;2023-05-07T09:38:22;16.90;99.90
19646;DHT22;9971;52.446;13.452;2023-05-07T09:43:24;16.80;99.90
19646;DHT22;9971;52.446;13.452;2023-05-07T09:48:27;16.80;99.90
19646;DHT22;9971;52.446;13.452;2023-05-07T09:53:29;17.00;99.90
19646;DHT22;9971;52.446;13.452;2023-05-07T09:58:31;16.90;99.90
19646;DHT22;9971;52.446;13.452;2023-05-07T10:03:33;16.90;99.90
19646;DHT22;9971;52.446;13.452;2023-05-07T10:08:35;17.00;99.90
19646;DHT22;9971;52.446;13.452;2023-05-07T10:13:37;17.30;99.90
19646;DHT22;9971;52.446;13.452;2023-05-07T10:18:40;17.50;99.90
19646;DHT22;9971;52.446;13.452;2023-05-07T10:23:43;17.50;99.90
19646;DHT22;9971;52.446;13.452;2023-05-07T10:28:45;17.40;99.90
19646;DHT22;9971;52.446;13.452;2023-05-07T10:33:46;17.30;99.90
19646;DHT22;9971;52.446;13.452;2023-05-07T10:38:48;17.30;99.90
19646;DHT22;9971;52.446;13.452;2023-05-07T10:43:50;17.20;99.90
19646;DHT22;9971;52.446;13.452;2023-05-07T10:49:07;17.60;99.90
19646;DHT22;9971;52.446;13.452;2023-05-07T10:54:24;18.30;99.90
19646;DHT22;9971;52.446;13.452;2023-05-07T10:59:31;18.70;99.90
19646;DHT22;9971;52.446;13.452;2023-05-07T11:04:32;19.10;99.90
19646;DHT22;9971;52.446;13.452;2023-05-07T11:09:59;19.60;99.90
19646;DHT22;9971;52.446;13.452;2023-05-07T11:15:02;19.40;99.90
19646;DHT22;9971;52.446;13.452;2023-05-07T11:20:04;19.00;99.90
19646;DHT22;9971;52.446;13.452;2023-05-07T11:25:07;18.90;99.90
19646;DHT22;9971;52.446;13.452;2023-05-07T11:30:10;19.00;99.90
19646;DHT22;9971;52.446;13.452;2023-05-07T11:35:12;18.90;99.90
19646;DHT22;9971;52.446;13.452;2023-05-07T11:40:15;19.30;99.90
19646;DHT22;9971;52.446;13.452;2023-05-07T11:45:22;19.50;99.90
19646;DHT22;9971;52.446;13.452;2023-05-07T11:50:19;19.90;99.90
19646;DHT22;9971;52.446;13.452;2023-05-07T11:55:21;20.50;99.90
19646;DHT22;9971;52.446;13.452;2023-05-07T12:00:23;20.80;99.30
19646;DHT22;9971;52.446;13.452;2023-05-07T12:05:26;20.80;97.60
19646;DHT22;9971;52.446;13.452;2023-05-07T12:10:28;21.00;96.60
19646;DHT22;9971;52.446;13.452;2023-05-07T12:15:31;21.50;95.00
19646;DHT22;9971;52.446;13.452;2023-05-07T12:20:34;21.60;96.50
19646;DHT22;9971;52.446;13.452;2023-05-07T12:25:35;22.00;94.20
19646;DHT22;9971;52.446;13.452;2023-05-07T12:30:38;21.60;93.40
19646;DHT22;9971;52.446;13.452;2023-05-07T12:35:40;21.60;94.00
19646;DHT22;9971;52.446;13.452;2023-05-07T12:40:43;21.80;92.90
19646;DHT22;9971;52.446;13.452;2023-05-07T12:45:45;21.60;93.40
19646;DHT22;9971;52.446;13.452;2023-05-07T12:50:49;21.40;93.30
19646;DHT22;9971;52.446;13.452;2023-05-07T12:55:53;21.00;93.50
19646;DHT22;9971;52.446;13.452;2023-05-07T13:00:55;20.80;94.10
19646;DHT22;9971;52.446;13.452;2023-05-07T13:05:58;20.50;94.10
19646;DHT22;9971;52.446;13.452;2023-05-07T13:11:00;20.20;95.20
19646;DHT22;9971;52.446;13.452;2023-05-07T13:16:01;20.60;94.50
19646;DHT22;9971;52.446;13.452;2023-05-07T13:21:03;21.20;91.50
19646;DHT22;9971;52.446;13.452;2023-05-07T13:26:06;21.30;90.80
19646;DHT22;9971;52.446;13.452;2023-05-07T13:31:08;21.70;90.10
19646;DHT22;9971;52.446;13.452;2023-05-07T13:36:10;22.10;90.20
19646;DHT22;9971;52.446;13.452;2023-05-07T13:41:13;22.10;88.90
19646;DHT22;9971;52.446;13.452;2023-05-07T13:46:15;22.40;89.70
19646;DHT22;9971;52.446;13.452;2023-05-07T13:51:18;22.70;85.80
19646;DHT22;9971;52.446;13.452;2023-05-07T13:56:20;22.50;86.10
19646;DHT22;9971;52.446;13.452;2023-05-07T14:01:23;21.90;87.00
19646;DHT22;9971;52.446;13.452;2023-05-07T14:06:25;21.50;86.90
19646;DHT22;9971;52.446;13.452;2023-05-07T14:11:27;21.30;88.80
19646;DHT22;9971;52.446;13.452;2023-05-07T14:16:30;21.10;90.20
19646;DHT22;9971;52.446;13.452;2023-05-07T14:21:32;20.80;88.20
19646;DHT22;9971;52.446;13.452;2023-05-07T14:26:34;20.70;88.70
19646;DHT22;9971;52.446;13.452;2023-05-07T14:31:36;20.70;88.20
19646;DHT22;9971;52.446;13.452;2023-05-07T14:36:39;20.40;89.70
19646;DHT22;9971;52.446;13.452;2023-05-07T14:41:41;20.30;90.90
19646;DHT22;9971;52.446;13.452;2023-05-07T14:46:44;20.50;90.20
19646;DHT22;9971;52.446;13.452;2023-05-07T14:51:46;21.10;88.50
19646;DHT22;9971;52.446;13.452;2023-05-07T14:56:48;21.50;86.50
19646;DHT22;9971;52.446;13.452;2023-05-07T15:01:51;21.80;83.00
19646;DHT22;9971;52.446;13.452;2023-05-07T15:06:54;21.70;85.80
19646;DHT22;9971;52.446;13.452;2023-05-07T15:11:56;22.00;87.00
19646;DHT22;9971;52.446;13.452;2023-05-07T15:16:58;22.10;82.80
19646;DHT22;9971;52.446;13.452;2023-05-07T15:22:01;22.30;82.00
19646;DHT22;9971;52.446;13.452;2023-05-07T15:27:04;22.40;81.80
19646;DHT22;9971;52.446;13.452;2023-05-07T15:32:07;22.20;83.10
19646;DHT22;9971;52.446;13.452;2023-05-07T15:37:09;22.60;82.40
19646;DHT22;9971;52.446;13.452;2023-05-07T15:42:12;22.80;79.40
19646;DHT22;9971;52.446;13.452;2023-05-07T15:47:14;22.40;79.30
19646;DHT22;9971;52.446;13.452;2023-05-07T15:52:16;22.10;81.00
19646;DHT22;9971;52.446;13.452;2023-05-07T15:57:20;21.90;83.10
19646;DHT22;9971;52.446;13.452;2023-05-07T16:02:23;21.40;84.40
19646;DHT22;9971;52.446;13.452;2023-05-07T16:07:25;21.50;84.70
19646;DHT22;9971;52.446;13.452;2023-05-07T16:12:28;21.70;82.70
19646;DHT22;9971;52.446;13.452;2023-05-07T16:17:30;21.20;82.60
19646;DHT22;9971;52.446;13.452;2023-05-07T16:22:33;20.80;85.20
19646;DHT22;9971;52.446;13.452;2023-05-07T16:27:35;20.80;83.40
19646;DHT22;9971;52.446;13.452;2023-05-07T16:32:37;21.00;84.10
19646;DHT22;9971;52.446;13.452;2023-05-07T16:37:40;21.20;84.30
19646;DHT22;9971;52.446;13.452;2023-05-07T16:42:42;21.30;83.00
19646;DHT22;9971;52.446;13.452;2023-05-07T16:47:45;20.70;81.80
19646;DHT22;9971;52.446;13.452;2023-05-07T16:52:47;20.00;83.70
19646;DHT22;9971;52.446;13.452;2023-05-07T16:57:50;19.80;86.40
19646;DHT22;9971;52.446;13.452;2023-05-07T17:02:52;19.80;86.30
19646;DHT22;9971;52.446;13.452;2023-05-07T17:07:54;19.80;85.50
19646;DHT22;9971;52.446;13.452;2023-05-07T17:12:57;19.60;87.40
19646;DHT22;9971;52.446;13.452;2023-05-07T17:17:59;19.20;88.10
19646;DHT22;9971;52.446;13.452;2023-05-07T17:23:02;18.80;89.90
19646;DHT22;9971;52.446;13.452;2023-05-07T17:28:04;18.40;90.90
19646;DHT22;9971;52.446;13.452;2023-05-07T17:33:06;18.20;91.40
19646;DHT22;9971;52.446;13.452;2023-05-07T17:38:08;17.90;92.10
19646;DHT22;9971;52.446;13.452;2023-05-07T17:43:11;17.70;92.10
19646;DHT22;9971;52.446;13.452;2023-05-07T17:48:13;17.50;91.60
19646;DHT22;9971;52.446;13.452;2023-05-07T17:53:16;17.30;92.10
19646;DHT22;9971;52.446;13.452;2023-05-07T17:58:18;17.10;92.20
19646;DHT22;9971;52.446;13.452;2023-05-07T18:03:20;16.90;92.80
19646;DHT22;9971;52.446;13.452;2023-05-07T18:08:23;16.70;93.50
19646;DHT22;9971;52.446;13.452;2023-05-07T18:13:25;16.60;93.80
19646;DHT22;9971;52.446;13.452;2023-05-07T18:18:28;16.50;94.20
19646;DHT22;9971;52.446;13.452;2023-05-07T18:23:30;16.30;94.70
19646;DHT22;9971;52.446;13.452;2023-05-07T18:28:32;16.10;95.40
19646;DHT22;9971;52.446;13.452;2023-05-07T18:33:35;16.00;96.30
19646;DHT22;9971;52.446;13.452;2023-05-07T18:38:37;15.90;96.70
19646;DHT22;9971;52.446;13.452;2023-05-07T18:43:40;15.80;97.40
19646;DHT22;9971;52.446;13.452;2023-05-07T18:48:42;15.80;98.10
19646;DHT22;9971;52.446;13.452;2023-05-07T18:53:44;15.70;98.80
19646;DHT22;9971;52.446;13.452;2023-05-07T18:58:47;15.70;98.30
19646;DHT22;9971;52.446;13.452;2023-05-07T19:03:49;15.60;98.80
19646;DHT22;9971;52.446;13.452;2023-05-07T19:08:52;15.50;98.20
19646;DHT22;9971;52.446;13.452;2023-05-07T19:13:54;15.50;98.10
19646;DHT22;9971;52.446;13.452;2023-05-07T19:18:57;15.50;98.20
19646;DHT22;9971;52.446;13.452;2023-05-07T19:23:59;15.40;98.00
19646;DHT22;9971;52.446;13.452;2023-05-07T19:29:02;15.30;98.10
19646;DHT22;9971;52.446;13.452;2023-05-07T19:34:04;15.20;98.00
19646;DHT22;9971;52.446;13.452;2023-05-07T19:39:07;15.20;98.30
19646;DHT22;9971;52.446;13.452;2023-05-07T19:44:09;15.10;98.40
19646;DHT22;9971;52.446;13.452;2023-05-07T19:49:11;15.00;99.10
19646;DHT22;9971;52.446;13.452;2023-05-07T19:54:14;14.90;99.60
19646;DHT22;9971;52.446;13.452;2023-05-07T19:59:16;14.70;99.90
19646;DHT22;9971;52.446;13.452;2023-05-07T20:04:18;14.60;99.90
19646;DHT22;9971;52.446;13.452;2023-05-07T20:09:21;14.40;99.90
19646;DHT22;9971;52.446;13.452;2023-05-07T20:14:23;14.30;99.90
19646;DHT22;9971;52.446;13.452;2023-05-07T20:19:26;14.20;99.90
19646;DHT22;9971;52.446;13.452;2023-05-07T20:24:28;14.00;99.90
19646;DHT22;9971;52.446;13.452;2023-05-07T20:29:32;13.90;99.90
19646;DHT22;9971;52.446;13.452;2023-05-07T20:34:34;13.80;99.90
19646;DHT22;9971;52.446;13.452;2023-05-07T20:39:36;13.60;99.90
19646;DHT22;9971;52.446;13.452;2023-05-07T20:44:39;13.50;99.90
19646;DHT22;9971;52.446;13.452;2023-05-07T20:49:41;13.40;99.90
19646;DHT22;9971;52.446;13.452;2023-05-07T20:54:44;13.20;99.90
19646;DHT22;9971;52.446;13.452;2023-05-07T20:59:46;13.10;99.90
19646;DHT22;9971;52.446;13.452;2023-05-07T21:04:48;13.00;99.90
19646;DHT22;9971;52.446;13.452;2023-05-07T21:09:50;12.90;99.90
19646;DHT22;9971;52.446;13.452;2023-05-07T21:14:53;12.90;99.90
19646;DHT22;9971;52.446;13.452;2023-05-07T21:19:56;12.80;99.90
19646;DHT22;9971;52.446;13.452;2023-05-07T21:24:59;12.70;99.90
19646;DHT22;9971;52.446;13.452;2023-05-07T21:30:01;12.60;99.90
19646;DHT22;9971;52.446;13.452;2023-05-07T21:35:04;12.50;99.90
19646;DHT22;9971;52.446;13.452;2023-05-07T21:40:08;12.40;99.90
19646;DHT22;9971;52.446;13.452;2023-05-07T21:45:11;12.30;99.90
19646;DHT22;9971;52.446;13.452;2023-05-07T21:50:13;12.30;99.90
19646;DHT22;9971;52.446;13.452;2023-05-07T21:55:17;12.20;99.90
19646;DHT22;9971;52.446;13.452;2023-05-07T22:00:18;12.10;99.90
19646;DHT22;9971;52.446;13.452;2023-05-07T22:05:21;12.00;99.90
19646;DHT22;9971;52.446;13.452;2023-05-07T22:10:23;11.90;99.90
19646;DHT22;9971;52.446;13.452;2023-05-07T22:15:26;11.80;99.90
19646;DHT22;9971;52.446;13.452;2023-05-07T22:20:29;11.80;99.90
19646;DHT22;9971;52.446;13.452;2023-05-07T22:25:31;11.70;99.90
19646;DHT22;9971;52.446;13.452;2023-05-07T22:30:33;11.60;99.90
19646;DHT22;9971;52.446;13.452;2023-05-07T22:35:36;11.50;99.90
19646;DHT22;9971;52.446;13.452;2023-05-07T22:40:39;11.50;99.90
19646;DHT22;9971;52.446;13.452;2023-05-07T22:45:41;11.30;99.90
19646;DHT22;9971;52.446;13.452;2023-05-07T22:50:44;11.30;99.90
19646;DHT22;9971;52.446;13.452;2023-05-07T22:55:47;11.20;99.90
19646;DHT22;9971;52.446;13.452;2023-05-07T23:00:50;11.10;99.90
19646;DHT22;9971;52.446;13.452;2023-05-07T23:05:52;11.00;99.90
19646;DHT22;9971;52.446;13.452;2023-05-07T23:10:55;11.00;99.90
19646;DHT22;9971;52.446;13.452;2023-05-07T23:15:57;10.80;99.90
19646;DHT22;9971;52.446;13.452;2023-05-07T23:21:00;10.80;99.90
19646;DHT22;9971;52.446;13.452;2023-05-07T23:26:02;10.80;99.90
19646;DHT22;9971;52.446;13.452;2023-05-07T23:31:06;10.70;99.90
19646;DHT22;9971;52.446;13.452;2023-05-07T23:36:07;10.70;99.90
19646;DHT22;9971;52.446;13.452;2023-05-07T23:41:10;10.70;99.90
19646;DHT22;9971;52.446;13.452;2023-05-07T23:46:12;10.50;99.90
19646;DHT22;9971;52.446;13.452;2023-05-07T23:51:15;10.50;99.90
19646;DHT22;9971;52.446;13.452;2023-05-07T23:56:17;10.40;99.90
